sensor_id;sensor_type;location;lat;lon;timestamp;pressure;altitude;pressure_sealevel;temperature;humidity
73063;BME280;61230;46.328;19.972;2022-09-12T16:03:28;100439.22;;;20.16;52.74
73063;BME280;61230;46.328;19.972;2022-09-12T16:06:01;100439.22;;;20.16;52.74
73063;BME280;61230;46.328;19.972;2022-09-12T16:08:30;100450.31;;;19.52;54.76
73063;BME280;61230;46.328;19.972;2022-09-12T16:11:02;100440.50;;;19.31;54.92
73063;BME280;61230;46.328;19.972;2022-09-12T16:13:30;100451.88;;;19.40;56.19
73063;BME280;61230;46.328;19.972;2022-09-12T16:15:58;100448.88;;;19.28;55.93
73063;BME280;61230;46.328;19.972;2022-09-12T16:18:27;100442.94;;;19.26;56.26
73063;BME280;61230;46.328;19.972;2022-09-12T16:20:55;100445.78;;;19.25;56.54
73063;BME280;61230;46.328;19.972;2022-09-12T16:23:23;100446.63;;;19.25;57.06
73063;BME280;61230;46.328;19.972;2022-09-12T16:25:58;100450.87;;;19.20;56.89
73063;BME280;61230;46.328;19.972;2022-09-12T16:28:27;100445.56;;;19.20;56.60
73063;BME280;61230;46.328;19.972;2022-09-12T16:30:57;100443.09;;;19.18;57.14
73063;BME280;61230;46.328;19.972;2022-09-12T16:33:25;100445.09;;;19.10;56.62
73063;BME280;61230;46.328;19.972;2022-09-12T16:36:06;100446.03;;;19.02;57.82
73063;BME280;61230;46.328;19.972;2022-09-12T16:38:43;100449.06;;;18.92;57.82
73063;BME280;61230;46.328;19.972;2022-09-12T16:41:13;100451.22;;;18.82;58.10
73063;BME280;61230;46.328;19.972;2022-09-12T16:43:42;100448.31;;;18.77;58.59
73063;BME280;61230;46.328;19.972;2022-09-12T16:46:12;100449.22;;;18.63;58.68
73063;BME280;61230;46.328;19.972;2022-09-12T16:48:42;100442.00;;;18.57;59.43
73063;BME280;61230;46.328;19.972;2022-09-12T16:51:22;100448.75;;;18.53;59.28
73063;BME280;61230;46.328;19.972;2022-09-12T16:53:50;100447.81;;;18.46;59.30
73063;BME280;61230;46.328;19.972;2022-09-12T16:56:18;100446.13;;;18.38;59.90
73063;BME280;61230;46.328;19.972;2022-09-12T16:58:46;100440.91;;;18.30;59.97
73063;BME280;61230;46.328;19.972;2022-09-12T17:01:20;100440.84;;;18.24;60.37
73063;BME280;61230;46.328;19.972;2022-09-12T17:03:52;100446.91;;;18.18;60.55
73063;BME280;61230;46.328;19.972;2022-09-12T17:06:20;100436.84;;;18.13;61.72
73063;BME280;61230;46.328;19.972;2022-09-12T17:08:50;100441.25;;;18.06;61.24
73063;BME280;61230;46.328;19.972;2022-09-12T17:11:23;100445.69;;;17.99;61.28
73063;BME280;61230;46.328;19.972;2022-09-12T17:13:53;100447.25;;;17.94;61.50
73063;BME280;61230;46.328;19.972;2022-09-12T17:16:38;100446.16;;;17.88;61.71
73063;BME280;61230;46.328;19.972;2022-09-12T17:19:09;100452.88;;;17.84;62.07
73063;BME280;61230;46.328;19.972;2022-09-12T17:21:38;100451.16;;;17.76;62.85
73063;BME280;61230;46.328;19.972;2022-09-12T17:24:05;100454.19;;;17.73;62.51
73063;BME280;61230;46.328;19.972;2022-09-12T17:26:33;100450.25;;;17.69;62.51
73063;BME280;61230;46.328;19.972;2022-09-12T17:29:01;100462.09;;;17.67;62.73
73063;BME280;61230;46.328;19.972;2022-09-12T17:31:29;100461.47;;;17.65;62.76
73063;BME280;61230;46.328;19.972;2022-09-12T17:33:58;100457.69;;;17.59;63.02
73063;BME280;61230;46.328;19.972;2022-09-12T17:36:27;100455.41;;;17.56;63.18
73063;BME280;61230;46.328;19.972;2022-09-12T17:38:54;100465.09;;;17.49;63.73
73063;BME280;61230;46.328;19.972;2022-09-12T17:41:24;100460.87;;;17.40;64.22
73063;BME280;61230;46.328;19.972;2022-09-12T17:43:56;100469.88;;;17.39;64.35
73063;BME280;61230;46.328;19.972;2022-09-12T17:46:30;100460.31;;;17.30;64.78
73063;BME280;61230;46.328;19.972;2022-09-12T17:48:59;100471.97;;;17.29;65.10
73063;BME280;61230;46.328;19.972;2022-09-12T17:51:28;100467.84;;;17.27;64.60
73063;BME280;61230;46.328;19.972;2022-09-12T17:54:12;100470.22;;;17.21;65.29
73063;BME280;61230;46.328;19.972;2022-09-12T17:56:41;100477.94;;;17.16;65.91
73063;BME280;61230;46.328;19.972;2022-09-12T17:59:13;100473.97;;;17.12;65.63
73063;BME280;61230;46.328;19.972;2022-09-12T18:01:41;100481.84;;;17.06;65.14
73063;BME280;61230;46.328;19.972;2022-09-12T18:04:28;100477.53;;;17.05;65.49
73063;BME280;61230;46.328;19.972;2022-09-12T18:06:56;100476.25;;;17.01;65.54
73063;BME280;61230;46.328;19.972;2022-09-12T18:09:27;100476.44;;;16.99;65.34
73063;BME280;61230;46.328;19.972;2022-09-12T18:11:55;100476.97;;;16.95;65.64
73063;BME280;61230;46.328;19.972;2022-09-12T18:14:23;100485.47;;;16.90;66.12
73063;BME280;61230;46.328;19.972;2022-09-12T18:16:51;100476.69;;;16.90;65.73
73063;BME280;61230;46.328;19.972;2022-09-12T18:19:19;100481.72;;;16.85;66.07
73063;BME280;61230;46.328;19.972;2022-09-12T18:21:46;100484.09;;;16.80;66.25
73063;BME280;61230;46.328;19.972;2022-09-12T18:24:13;100484.44;;;16.77;66.18
73063;BME280;61230;46.328;19.972;2022-09-12T18:26:41;100493.78;;;16.73;66.33
73063;BME280;61230;46.328;19.972;2022-09-12T18:29:10;100493.97;;;16.71;66.75
73063;BME280;61230;46.328;19.972;2022-09-12T18:31:38;100492.00;;;16.65;67.02
73063;BME280;61230;46.328;19.972;2022-09-12T18:34:06;100490.06;;;16.59;67.18
73063;BME280;61230;46.328;19.972;2022-09-12T18:36:44;100494.75;;;16.57;67.04
73063;BME280;61230;46.328;19.972;2022-09-12T18:39:12;100494.91;;;16.55;67.73
73063;BME280;61230;46.328;19.972;2022-09-12T18:41:40;100497.22;;;16.50;67.58
73063;BME280;61230;46.328;19.972;2022-09-12T18:44:09;100501.06;;;16.48;67.59
73063;BME280;61230;46.328;19.972;2022-09-12T18:46:38;100495.63;;;16.41;68.04
73063;BME280;61230;46.328;19.972;2022-09-12T18:49:06;100489.84;;;16.38;67.76
73063;BME280;61230;46.328;19.972;2022-09-12T18:51:35;100494.69;;;16.34;68.85
73063;BME280;61230;46.328;19.972;2022-09-12T18:54:05;100501.53;;;16.29;69.28
73063;BME280;61230;46.328;19.972;2022-09-12T18:56:36;100495.75;;;16.25;69.03
73063;BME280;61230;46.328;19.972;2022-09-12T18:59:06;100501.75;;;16.19;69.80
73063;BME280;61230;46.328;19.972;2022-09-12T19:01:35;100498.44;;;16.17;69.64
73063;BME280;61230;46.328;19.972;2022-09-12T19:04:04;100499.97;;;16.12;69.93
73063;BME280;61230;46.328;19.972;2022-09-12T19:06:35;100496.00;;;16.07;70.03
73063;BME280;61230;46.328;19.972;2022-09-12T19:09:04;100494.53;;;16.05;70.07
73063;BME280;61230;46.328;19.972;2022-09-12T19:11:36;100495.72;;;16.02;70.07
73063;BME280;61230;46.328;19.972;2022-09-12T19:14:05;100501.50;;;15.98;70.57
73063;BME280;61230;46.328;19.972;2022-09-12T19:16:34;100493.94;;;15.95;70.75
73063;BME280;61230;46.328;19.972;2022-09-12T19:19:02;100490.78;;;15.91;70.89
73063;BME280;61230;46.328;19.972;2022-09-12T19:21:30;100489.47;;;15.87;71.27
73063;BME280;61230;46.328;19.972;2022-09-12T19:24:02;100491.81;;;15.82;71.71
73063;BME280;61230;46.328;19.972;2022-09-12T19:26:31;100496.47;;;15.80;72.01
73063;BME280;61230;46.328;19.972;2022-09-12T19:28:59;100496.31;;;15.74;71.96
73063;BME280;61230;46.328;19.972;2022-09-12T19:31:29;100498.16;;;15.73;71.93
73063;BME280;61230;46.328;19.972;2022-09-12T19:34:03;100494.34;;;15.68;72.13
73063;BME280;61230;46.328;19.972;2022-09-12T19:36:31;100502.50;;;15.66;72.36
73063;BME280;61230;46.328;19.972;2022-09-12T19:39:13;100502.00;;;15.63;72.99
73063;BME280;61230;46.328;19.972;2022-09-12T19:41:41;100505.34;;;15.57;73.72
73063;BME280;61230;46.328;19.972;2022-09-12T19:44:09;100501.03;;;15.56;73.67
73063;BME280;61230;46.328;19.972;2022-09-12T19:46:38;100501.84;;;15.56;73.00
73063;BME280;61230;46.328;19.972;2022-09-12T19:49:05;100498.56;;;15.54;72.99
73063;BME280;61230;46.328;19.972;2022-09-12T19:51:32;100502.38;;;15.51;72.80
73063;BME280;61230;46.328;19.972;2022-09-12T19:54:00;100508.03;;;15.48;72.88
73063;BME280;61230;46.328;19.972;2022-09-12T19:56:28;100504.72;;;15.46;72.83
73063;BME280;61230;46.328;19.972;2022-09-12T19:58:55;100501.72;;;15.49;72.54
73063;BME280;61230;46.328;19.972;2022-09-12T20:01:25;100510.81;;;15.47;73.11
73063;BME280;61230;46.328;19.972;2022-09-12T20:03:56;100508.84;;;15.49;72.56
73063;BME280;61230;46.328;19.972;2022-09-12T20:06:25;100507.38;;;15.46;72.66
73063;BME280;61230;46.328;19.972;2022-09-12T20:08:54;100504.72;;;15.46;72.60
73063;BME280;61230;46.328;19.972;2022-09-12T20:11:22;100505.81;;;15.44;72.89
73063;BME280;61230;46.328;19.972;2022-09-12T20:13:51;100504.69;;;15.38;72.95
73063;BME280;61230;46.328;19.972;2022-09-12T20:16:26;100499.06;;;15.33;72.93
73063;BME280;61230;46.328;19.972;2022-09-12T20:19:05;100505.19;;;15.34;73.10
73063;BME280;61230;46.328;19.972;2022-09-12T20:21:35;100503.06;;;15.29;73.14
73063;BME280;61230;46.328;19.972;2022-09-12T20:24:09;100499.41;;;15.30;73.22
73063;BME280;61230;46.328;19.972;2022-09-12T20:26:37;100501.06;;;15.31;73.18
73063;BME280;61230;46.328;19.972;2022-09-12T20:29:06;100501.06;;;15.31;73.14
73063;BME280;61230;46.328;19.972;2022-09-12T20:31:35;100496.09;;;15.28;73.07
73063;BME280;61230;46.328;19.972;2022-09-12T20:34:04;100499.91;;;15.26;73.39
73063;BME280;61230;46.328;19.972;2022-09-12T20:36:32;100506.22;;;15.25;73.30
73063;BME280;61230;46.328;19.972;2022-09-12T20:39:01;100502.06;;;15.22;73.40
73063;BME280;61230;46.328;19.972;2022-09-12T20:41:31;100502.41;;;15.19;73.42
73063;BME280;61230;46.328;19.972;2022-09-12T20:43:59;100498.47;;;15.15;73.72
73063;BME280;61230;46.328;19.972;2022-09-12T20:46:27;100503.06;;;15.13;73.70
73063;BME280;61230;46.328;19.972;2022-09-12T20:48:55;100505.06;;;15.11;73.74
73063;BME280;61230;46.328;19.972;2022-09-12T20:51:25;100490.34;;;15.01;73.87
73063;BME280;61230;46.328;19.972;2022-09-12T20:53:54;100496.50;;;15.01;73.98
73063;BME280;61230;46.328;19.972;2022-09-12T20:56:22;100499.28;;;15.00;74.61
73063;BME280;61230;46.328;19.972;2022-09-12T20:58:50;100498.31;;;14.92;74.71
73063;BME280;61230;46.328;19.972;2022-09-12T21:01:18;100514.69;;;14.96;75.25
73063;BME280;61230;46.328;19.972;2022-09-12T21:03:46;100509.72;;;14.85;76.88
73063;BME280;61230;46.328;19.972;2022-09-12T21:06:15;100515.34;;;14.58;75.78
73063;BME280;61230;46.328;19.972;2022-09-12T21:08:44;100513.44;;;14.18;78.80
73063;BME280;61230;46.328;19.972;2022-09-12T21:11:13;100508.44;;;14.15;78.50
73063;BME280;61230;46.328;19.972;2022-09-12T21:13:41;100496.88;;;14.16;78.27
73063;BME280;61230;46.328;19.972;2022-09-12T21:16:11;100501.50;;;14.22;78.41
73063;BME280;61230;46.328;19.972;2022-09-12T21:18:39;100506.06;;;14.37;78.38
73063;BME280;61230;46.328;19.972;2022-09-12T21:21:09;100512.69;;;14.42;77.82
73063;BME280;61230;46.328;19.972;2022-09-12T21:23:37;100512.34;;;14.45;79.15
73063;BME280;61230;46.328;19.972;2022-09-12T21:26:05;100518.13;;;14.32;80.69
73063;BME280;61230;46.328;19.972;2022-09-12T21:28:34;100509.34;;;14.39;77.79
73063;BME280;61230;46.328;19.972;2022-09-12T21:31:01;100512.22;;;14.04;79.19
73063;BME280;61230;46.328;19.972;2022-09-12T21:33:29;100509.62;;;14.20;79.49
73063;BME280;61230;46.328;19.972;2022-09-12T21:36:04;100517.69;;;14.11;79.40
73063;BME280;61230;46.328;19.972;2022-09-12T21:38:32;100518.84;;;14.08;80.03
73063;BME280;61230;46.328;19.972;2022-09-12T21:41:09;100516.38;;;14.07;80.15
73063;BME280;61230;46.328;19.972;2022-09-12T21:43:37;100523.03;;;14.19;78.78
73063;BME280;61230;46.328;19.972;2022-09-12T21:46:05;100513.56;;;14.08;79.55
73063;BME280;61230;46.328;19.972;2022-09-12T21:48:33;100513.44;;;14.18;77.91
73063;BME280;61230;46.328;19.972;2022-09-12T21:51:02;100519.38;;;14.20;77.77
73063;BME280;61230;46.328;19.972;2022-09-12T21:53:30;100516.59;;;14.21;78.91
73063;BME280;61230;46.328;19.972;2022-09-12T21:56:03;100517.06;;;14.25;77.41
73063;BME280;61230;46.328;19.972;2022-09-12T21:58:32;100516.91;;;14.26;77.76
73063;BME280;61230;46.328;19.972;2022-09-12T22:00:59;100513.44;;;14.26;77.75
73063;BME280;61230;46.328;19.972;2022-09-12T22:03:28;100510.91;;;14.16;78.71
73063;BME280;61230;46.328;19.972;2022-09-12T22:05:57;100510.59;;;14.11;78.74
73063;BME280;61230;46.328;19.972;2022-09-12T22:08:25;100511.09;;;14.15;77.75
73063;BME280;61230;46.328;19.972;2022-09-12T22:11:01;100501.28;;;13.99;77.79
73063;BME280;61230;46.328;19.972;2022-09-12T22:13:29;100504.72;;;13.92;77.83
73063;BME280;61230;46.328;19.972;2022-09-12T22:15:59;100500.06;;;13.86;78.60
73063;BME280;61230;46.328;19.972;2022-09-12T22:18:36;100501.53;;;13.80;78.00
73063;BME280;61230;46.328;19.972;2022-09-12T22:21:07;100499.84;;;13.71;78.63
73063;BME280;61230;46.328;19.972;2022-09-12T22:23:34;100500.50;;;13.65;78.99
73063;BME280;61230;46.328;19.972;2022-09-12T22:26:21;100500.53;;;13.73;78.69
73063;BME280;61230;46.328;19.972;2022-09-12T22:28:49;100508.28;;;13.66;78.95
73063;BME280;61230;46.328;19.972;2022-09-12T22:31:17;100498.00;;;13.63;79.74
73063;BME280;61230;46.328;19.972;2022-09-12T22:33:45;100504.69;;;13.75;80.09
73063;BME280;61230;46.328;19.972;2022-09-12T22:36:13;100510.50;;;13.79;78.90
73063;BME280;61230;46.328;19.972;2022-09-12T22:38:40;100505.50;;;13.76;79.41
73063;BME280;61230;46.328;19.972;2022-09-12T22:41:09;100507.16;;;13.77;79.67
73063;BME280;61230;46.328;19.972;2022-09-12T22:43:37;100514.06;;;13.70;78.71
73063;BME280;61230;46.328;19.972;2022-09-12T22:46:09;100511.41;;;13.36;80.05
73063;BME280;61230;46.328;19.972;2022-09-12T22:48:39;100508.78;;;13.36;79.54
73063;BME280;61230;46.328;19.972;2022-09-12T22:51:07;100511.16;;;13.47;79.86
73063;BME280;61230;46.328;19.972;2022-09-12T22:53:35;100517.06;;;13.41;80.72
73063;BME280;61230;46.328;19.972;2022-09-12T22:56:04;100522.81;;;13.37;80.31
73063;BME280;61230;46.328;19.972;2022-09-12T22:58:33;100514.19;;;13.35;80.13
73063;BME280;61230;46.328;19.972;2022-09-12T23:01:04;100506.53;;;13.06;80.87
73063;BME280;61230;46.328;19.972;2022-09-12T23:03:32;100512.09;;;13.12;80.37
73063;BME280;61230;46.328;19.972;2022-09-12T23:06:00;100519.34;;;12.93;81.50
73063;BME280;61230;46.328;19.972;2022-09-12T23:08:28;100514.72;;;12.95;81.13
73063;BME280;61230;46.328;19.972;2022-09-12T23:11:04;100508.94;;;12.91;80.77
73063;BME280;61230;46.328;19.972;2022-09-12T23:13:32;100507.72;;;12.86;81.11
73063;BME280;61230;46.328;19.972;2022-09-12T23:16:01;100501.75;;;12.84;80.72
73063;BME280;61230;46.328;19.972;2022-09-12T23:18:29;100502.97;;;12.72;80.87
73063;BME280;61230;46.328;19.972;2022-09-12T23:20:59;100511.87;;;12.88;81.51
73063;BME280;61230;46.328;19.972;2022-09-12T23:23:27;100514.94;;;13.01;80.29
73063;BME280;61230;46.328;19.972;2022-09-12T23:28:30;100509.56;;;12.67;80.47
73063;BME280;61230;46.328;19.972;2022-09-12T23:30:57;100510.22;;;12.87;80.22
73063;BME280;61230;46.328;19.972;2022-09-12T23:33:27;100507.66;;;12.78;80.15
73063;BME280;61230;46.328;19.972;2022-09-12T23:36:03;100508.53;;;12.86;80.69
73063;BME280;61230;46.328;19.972;2022-09-12T23:38:32;100515.19;;;12.73;80.23
73063;BME280;61230;46.328;19.972;2022-09-12T23:41:03;100499.22;;;12.74;81.20
73063;BME280;61230;46.328;19.972;2022-09-12T23:43:31;100518.22;;;12.78;80.11
73063;BME280;61230;46.328;19.972;2022-09-12T23:45:59;100517.91;;;12.81;80.11
73063;BME280;61230;46.328;19.972;2022-09-12T23:48:27;100513.81;;;12.86;80.35
73063;BME280;61230;46.328;19.972;2022-09-12T23:50:54;100515.13;;;12.47;81.17
73063;BME280;61230;46.328;19.972;2022-09-12T23:53:22;100515.06;;;12.39;81.52
73063;BME280;61230;46.328;19.972;2022-09-12T23:55:50;100511.66;;;12.64;80.71
73063;BME280;61230;46.328;19.972;2022-09-12T23:58:18;100511.72;;;12.72;81.29
